sensor_id;sensor_type;location;lat;lon;timestamp;temperature;humidity
8858;DHT22;4465;50.904;4.696;2024-02-15T00:02:31;12.70;99.90
8858;DHT22;4465;50.904;4.696;2024-02-15T00:04:56;12.70;99.90
8858;DHT22;4465;50.904;4.696;2024-02-15T00:07:27;12.70;99.90
8858;DHT22;4465;50.904;4.696;2024-02-15T00:09:53;12.70;99.90
8858;DHT22;4465;50.904;4.696;2024-02-15T00:12:20;12.70;99.90
8858;DHT22;4465;50.904;4.696;2024-02-15T00:14:48;12.80;99.90
8858;DHT22;4465;50.904;4.696;2024-02-15T00:17:16;12.70;99.90
8858;DHT22;4465;50.904;4.696;2024-02-15T00:19:43;12.70;99.90
8858;DHT22;4465;50.904;4.696;2024-02-15T00:22:09;12.80;99.90
8858;DHT22;4465;50.904;4.696;2024-02-15T00:24:38;12.70;99.90
8858;DHT22;4465;50.904;4.696;2024-02-15T00:27:04;12.70;99.90
8858;DHT22;4465;50.904;4.696;2024-02-15T00:29:30;12.80;99.90
8858;DHT22;4465;50.904;4.696;2024-02-15T00:31:57;12.80;99.90
8858;DHT22;4465;50.904;4.696;2024-02-15T00:34:25;12.80;99.90
8858;DHT22;4465;50.904;4.696;2024-02-15T00:36:52;12.80;99.90
8858;DHT22;4465;50.904;4.696;2024-02-15T00:39:21;12.80;99.90
8858;DHT22;4465;50.904;4.696;2024-02-15T00:41:50;12.80;99.90
8858;DHT22;4465;50.904;4.696;2024-02-15T00:44:16;12.80;99.90
8858;DHT22;4465;50.904;4.696;2024-02-15T00:46:45;12.80;99.90
8858;DHT22;4465;50.904;4.696;2024-02-15T00:49:12;12.80;99.90
8858;DHT22;4465;50.904;4.696;2024-02-15T00:51:42;12.80;99.90
8858;DHT22;4465;50.904;4.696;2024-02-15T00:54:13;12.80;99.90
8858;DHT22;4465;50.904;4.696;2024-02-15T00:56:42;12.80;99.90
8858;DHT22;4465;50.904;4.696;2024-02-15T00:59:12;12.80;99.90
8858;DHT22;4465;50.904;4.696;2024-02-15T01:01:40;12.80;99.90
8858;DHT22;4465;50.904;4.696;2024-02-15T01:04:06;12.80;99.90
8858;DHT22;4465;50.904;4.696;2024-02-15T01:06:34;12.80;99.90
8858;DHT22;4465;50.904;4.696;2024-02-15T01:09:00;12.80;99.90
8858;DHT22;4465;50.904;4.696;2024-02-15T01:11:31;12.80;99.90
8858;DHT22;4465;50.904;4.696;2024-02-15T01:14:05;12.80;99.90
8858;DHT22;4465;50.904;4.696;2024-02-15T01:16:36;12.90;99.90
8858;DHT22;4465;50.904;4.696;2024-02-15T01:19:05;12.80;99.90
8858;DHT22;4465;50.904;4.696;2024-02-15T01:21:33;12.90;99.90
8858;DHT22;4465;50.904;4.696;2024-02-15T01:24:06;12.80;99.90
8858;DHT22;4465;50.904;4.696;2024-02-15T01:26:37;12.80;99.90
8858;DHT22;4465;50.904;4.696;2024-02-15T01:29:05;12.80;99.90
8858;DHT22;4465;50.904;4.696;2024-02-15T01:31:38;12.80;99.90
8858;DHT22;4465;50.904;4.696;2024-02-15T01:34:06;12.80;99.90
8858;DHT22;4465;50.904;4.696;2024-02-15T01:36:32;12.90;99.90
8858;DHT22;4465;50.904;4.696;2024-02-15T01:38:58;12.80;99.90
8858;DHT22;4465;50.904;4.696;2024-02-15T01:41:26;12.90;99.90
8858;DHT22;4465;50.904;4.696;2024-02-15T01:43:52;12.90;99.90
8858;DHT22;4465;50.904;4.696;2024-02-15T01:46:19;12.90;99.90
8858;DHT22;4465;50.904;4.696;2024-02-15T01:48:46;12.90;99.90
8858;DHT22;4465;50.904;4.696;2024-02-15T01:51:13;12.90;99.90
8858;DHT22;4465;50.904;4.696;2024-02-15T01:53:42;12.90;99.90
8858;DHT22;4465;50.904;4.696;2024-02-15T01:56:13;12.90;99.90
8858;DHT22;4465;50.904;4.696;2024-02-15T01:58:40;12.80;99.90
8858;DHT22;4465;50.904;4.696;2024-02-15T02:01:09;12.90;99.90
8858;DHT22;4465;50.904;4.696;2024-02-15T02:03:39;12.80;99.90
8858;DHT22;4465;50.904;4.696;2024-02-15T02:06:07;12.80;99.90
8858;DHT22;4465;50.904;4.696;2024-02-15T02:08:33;12.90;99.90
8858;DHT22;4465;50.904;4.696;2024-02-15T02:10:59;12.80;99.90
8858;DHT22;4465;50.904;4.696;2024-02-15T02:13:29;12.90;99.90
8858;DHT22;4465;50.904;4.696;2024-02-15T02:15:55;12.90;99.90
8858;DHT22;4465;50.904;4.696;2024-02-15T02:18:22;12.80;99.90
8858;DHT22;4465;50.904;4.696;2024-02-15T02:20:53;12.80;99.90
8858;DHT22;4465;50.904;4.696;2024-02-15T02:23:21;12.80;99.90
8858;DHT22;4465;50.904;4.696;2024-02-15T02:25:52;12.80;99.90
8858;DHT22;4465;50.904;4.696;2024-02-15T02:28:20;12.80;99.90
8858;DHT22;4465;50.904;4.696;2024-02-15T02:30:47;12.80;99.90
8858;DHT22;4465;50.904;4.696;2024-02-15T02:33:15;12.80;99.90
8858;DHT22;4465;50.904;4.696;2024-02-15T02:35:45;12.80;99.90
8858;DHT22;4465;50.904;4.696;2024-02-15T02:38:13;12.80;99.90
8858;DHT22;4465;50.904;4.696;2024-02-15T02:40:42;12.80;99.90
8858;DHT22;4465;50.904;4.696;2024-02-15T02:43:08;12.70;99.90
8858;DHT22;4465;50.904;4.696;2024-02-15T02:45:36;12.80;99.90
8858;DHT22;4465;50.904;4.696;2024-02-15T02:48:02;12.70;99.90
8858;DHT22;4465;50.904;4.696;2024-02-15T02:50:28;12.80;99.90
8858;DHT22;4465;50.904;4.696;2024-02-15T02:52:54;12.70;99.90
8858;DHT22;4465;50.904;4.696;2024-02-15T02:55:20;12.70;99.90
8858;DHT22;4465;50.904;4.696;2024-02-15T02:57:46;12.80;99.90
8858;DHT22;4465;50.904;4.696;2024-02-15T03:00:13;12.80;99.90
8858;DHT22;4465;50.904;4.696;2024-02-15T03:02:45;12.80;99.90
8858;DHT22;4465;50.904;4.696;2024-02-15T03:05:11;12.80;99.90
8858;DHT22;4465;50.904;4.696;2024-02-15T03:07:41;12.80;99.90
8858;DHT22;4465;50.904;4.696;2024-02-15T03:10:08;12.80;99.90
8858;DHT22;4465;50.904;4.696;2024-02-15T03:12:40;12.80;99.90
8858;DHT22;4465;50.904;4.696;2024-02-15T03:15:07;12.80;99.90
8858;DHT22;4465;50.904;4.696;2024-02-15T03:17:43;12.70;99.90
8858;DHT22;4465;50.904;4.696;2024-02-15T03:20:12;12.70;99.90
8858;DHT22;4465;50.904;4.696;2024-02-15T03:23:05;12.70;99.90
8858;DHT22;4465;50.904;4.696;2024-02-15T03:25:31;12.70;99.90
8858;DHT22;4465;50.904;4.696;2024-02-15T03:28:00;12.80;99.90
8858;DHT22;4465;50.904;4.696;2024-02-15T03:30:31;12.80;99.90
8858;DHT22;4465;50.904;4.696;2024-02-15T03:32:59;12.70;99.90
8858;DHT22;4465;50.904;4.696;2024-02-15T03:35:29;12.80;99.90
8858;DHT22;4465;50.904;4.696;2024-02-15T03:37:57;12.80;99.90
8858;DHT22;4465;50.904;4.696;2024-02-15T03:40:24;12.70;99.90
8858;DHT22;4465;50.904;4.696;2024-02-15T03:42:52;12.70;99.90
8858;DHT22;4465;50.904;4.696;2024-02-15T03:45:19;12.70;99.90
8858;DHT22;4465;50.904;4.696;2024-02-15T03:47:45;12.70;99.90
8858;DHT22;4465;50.904;4.696;2024-02-15T03:50:12;12.70;99.90
8858;DHT22;4465;50.904;4.696;2024-02-15T03:52:40;12.70;99.90
8858;DHT22;4465;50.904;4.696;2024-02-15T03:55:07;12.70;99.90
8858;DHT22;4465;50.904;4.696;2024-02-15T03:57:33;12.70;99.90
8858;DHT22;4465;50.904;4.696;2024-02-15T04:00:00;12.70;99.90
8858;DHT22;4465;50.904;4.696;2024-02-15T04:02:26;12.70;99.90
8858;DHT22;4465;50.904;4.696;2024-02-15T04:04:55;12.70;99.90
8858;DHT22;4465;50.904;4.696;2024-02-15T04:07:23;12.60;99.90
8858;DHT22;4465;50.904;4.696;2024-02-15T04:09:53;12.60;99.90
8858;DHT22;4465;50.904;4.696;2024-02-15T04:12:19;12.60;99.90
8858;DHT22;4465;50.904;4.696;2024-02-15T04:14:48;12.60;99.90
8858;DHT22;4465;50.904;4.696;2024-02-15T04:17:16;12.60;99.90
8858;DHT22;4465;50.904;4.696;2024-02-15T04:19:44;12.60;99.90
8858;DHT22;4465;50.904;4.696;2024-02-15T04:22:12;12.60;99.90
8858;DHT22;4465;50.904;4.696;2024-02-15T04:24:38;12.60;99.90
8858;DHT22;4465;50.904;4.696;2024-02-15T04:27:09;12.60;99.90
8858;DHT22;4465;50.904;4.696;2024-02-15T04:29:38;12.60;99.90
8858;DHT22;4465;50.904;4.696;2024-02-15T04:32:09;12.60;99.90
8858;DHT22;4465;50.904;4.696;2024-02-15T04:34:39;12.60;99.90
8858;DHT22;4465;50.904;4.696;2024-02-15T04:37:05;12.60;99.90
8858;DHT22;4465;50.904;4.696;2024-02-15T04:39:34;12.60;99.90
8858;DHT22;4465;50.904;4.696;2024-02-15T04:42:03;12.60;99.90
8858;DHT22;4465;50.904;4.696;2024-02-15T04:44:32;12.60;99.90
8858;DHT22;4465;50.904;4.696;2024-02-15T04:47:01;12.60;99.90
8858;DHT22;4465;50.904;4.696;2024-02-15T04:49:33;12.50;99.90
8858;DHT22;4465;50.904;4.696;2024-02-15T04:51:59;12.50;99.90
8858;DHT22;4465;50.904;4.696;2024-02-15T04:54:27;12.50;99.90
8858;DHT22;4465;50.904;4.696;2024-02-15T04:56:58;12.50;99.90
8858;DHT22;4465;50.904;4.696;2024-02-15T04:59:24;12.60;99.90
8858;DHT22;4465;50.904;4.696;2024-02-15T05:01:55;12.50;99.90
8858;DHT22;4465;50.904;4.696;2024-02-15T05:04:22;12.50;99.90
8858;DHT22;4465;50.904;4.696;2024-02-15T05:06:50;12.50;99.90
8858;DHT22;4465;50.904;4.696;2024-02-15T05:09:16;12.50;99.90
8858;DHT22;4465;50.904;4.696;2024-02-15T05:11:46;12.50;99.90
8858;DHT22;4465;50.904;4.696;2024-02-15T05:14:14;12.50;99.90
8858;DHT22;4465;50.904;4.696;2024-02-15T05:16:47;12.40;99.90
8858;DHT22;4465;50.904;4.696;2024-02-15T05:19:17;12.40;99.90
8858;DHT22;4465;50.904;4.696;2024-02-15T05:21:46;12.40;99.90
8858;DHT22;4465;50.904;4.696;2024-02-15T05:24:16;12.40;99.90
8858;DHT22;4465;50.904;4.696;2024-02-15T05:26:45;12.40;99.90
8858;DHT22;4465;50.904;4.696;2024-02-15T05:29:18;12.40;99.90
8858;DHT22;4465;50.904;4.696;2024-02-15T05:31:46;12.30;99.90
8858;DHT22;4465;50.904;4.696;2024-02-15T05:34:12;12.30;99.90
8858;DHT22;4465;50.904;4.696;2024-02-15T05:36:38;12.30;99.90
8858;DHT22;4465;50.904;4.696;2024-02-15T05:39:07;12.30;99.90
8858;DHT22;4465;50.904;4.696;2024-02-15T05:41:33;12.30;99.90
8858;DHT22;4465;50.904;4.696;2024-02-15T05:44:00;12.30;99.90
8858;DHT22;4465;50.904;4.696;2024-02-15T05:46:28;12.30;99.90
8858;DHT22;4465;50.904;4.696;2024-02-15T05:48:54;12.30;99.90
8858;DHT22;4465;50.904;4.696;2024-02-15T05:51:22;12.30;99.90
8858;DHT22;4465;50.904;4.696;2024-02-15T05:53:48;12.30;99.90
8858;DHT22;4465;50.904;4.696;2024-02-15T05:56:15;12.30;99.90
8858;DHT22;4465;50.904;4.696;2024-02-15T05:58:44;12.30;99.90
8858;DHT22;4465;50.904;4.696;2024-02-15T06:01:14;12.30;99.90
8858;DHT22;4465;50.904;4.696;2024-02-15T06:03:42;12.30;99.90
8858;DHT22;4465;50.904;4.696;2024-02-15T06:06:10;12.30;99.90
8858;DHT22;4465;50.904;4.696;2024-02-15T06:08:37;12.30;99.90
8858;DHT22;4465;50.904;4.696;2024-02-15T06:11:06;12.30;99.90
8858;DHT22;4465;50.904;4.696;2024-02-15T06:13:32;12.30;99.90
8858;DHT22;4465;50.904;4.696;2024-02-15T06:16:03;12.30;99.90
8858;DHT22;4465;50.904;4.696;2024-02-15T06:18:34;12.30;99.90
8858;DHT22;4465;50.904;4.696;2024-02-15T06:21:04;12.30;99.90
8858;DHT22;4465;50.904;4.696;2024-02-15T06:23:31;12.30;99.90
8858;DHT22;4465;50.904;4.696;2024-02-15T06:25:59;12.30;99.90
8858;DHT22;4465;50.904;4.696;2024-02-15T06:28:26;12.30;99.90
8858;DHT22;4465;50.904;4.696;2024-02-15T06:31:11;12.30;99.90
8858;DHT22;4465;50.904;4.696;2024-02-15T06:33:56;12.30;99.90
8858;DHT22;4465;50.904;4.696;2024-02-15T06:36:52;12.40;99.90
8858;DHT22;4465;50.904;4.696;2024-02-15T06:39:37;12.40;99.90
8858;DHT22;4465;50.904;4.696;2024-02-15T06:42:15;12.40;99.90
8858;DHT22;4465;50.904;4.696;2024-02-15T06:44:43;12.40;99.90
8858;DHT22;4465;50.904;4.696;2024-02-15T06:47:09;12.40;99.90
8858;DHT22;4465;50.904;4.696;2024-02-15T06:49:42;12.40;99.90
8858;DHT22;4465;50.904;4.696;2024-02-15T06:52:12;12.40;99.90
8858;DHT22;4465;50.904;4.696;2024-02-15T06:54:39;12.40;99.90
8858;DHT22;4465;50.904;4.696;2024-02-15T06:57:05;12.40;99.90
8858;DHT22;4465;50.904;4.696;2024-02-15T06:59:32;12.40;99.90
8858;DHT22;4465;50.904;4.696;2024-02-15T07:01:59;12.40;99.90
8858;DHT22;4465;50.904;4.696;2024-02-15T07:04:30;12.40;99.90
8858;DHT22;4465;50.904;4.696;2024-02-15T07:06:58;12.40;99.90
8858;DHT22;4465;50.904;4.696;2024-02-15T07:09:32;12.40;99.90
8858;DHT22;4465;50.904;4.696;2024-02-15T07:11:58;12.40;99.90
8858;DHT22;4465;50.904;4.696;2024-02-15T07:14:24;12.40;99.90
8858;DHT22;4465;50.904;4.696;2024-02-15T07:16:51;12.40;99.90
8858;DHT22;4465;50.904;4.696;2024-02-15T07:19:17;12.40;99.90
8858;DHT22;4465;50.904;4.696;2024-02-15T07:21:43;12.40;99.90
8858;DHT22;4465;50.904;4.696;2024-02-15T07:24:12;12.40;99.90
8858;DHT22;4465;50.904;4.696;2024-02-15T07:26:41;12.40;99.90
8858;DHT22;4465;50.904;4.696;2024-02-15T07:29:10;12.40;99.90
8858;DHT22;4465;50.904;4.696;2024-02-15T07:31:36;12.40;99.90
8858;DHT22;4465;50.904;4.696;2024-02-15T07:34:02;12.40;99.90
8858;DHT22;4465;50.904;4.696;2024-02-15T07:36:31;12.40;99.90
8858;DHT22;4465;50.904;4.696;2024-02-15T07:39:00;12.40;99.90
8858;DHT22;4465;50.904;4.696;2024-02-15T07:41:29;12.40;99.90
8858;DHT22;4465;50.904;4.696;2024-02-15T07:43:55;12.40;99.90
8858;DHT22;4465;50.904;4.696;2024-02-15T07:46:21;12.40;99.90
8858;DHT22;4465;50.904;4.696;2024-02-15T07:48:48;12.50;99.90
8858;DHT22;4465;50.904;4.696;2024-02-15T07:51:18;12.50;99.90
8858;DHT22;4465;50.904;4.696;2024-02-15T07:53:44;12.50;99.90
8858;DHT22;4465;50.904;4.696;2024-02-15T07:56:14;12.50;99.90
8858;DHT22;4465;50.904;4.696;2024-02-15T07:58:44;12.50;99.90
8858;DHT22;4465;50.904;4.696;2024-02-15T08:01:16;12.50;99.90
8858;DHT22;4465;50.904;4.696;2024-02-15T08:03:46;12.50;99.90
8858;DHT22;4465;50.904;4.696;2024-02-15T08:06:13;12.60;99.90
8858;DHT22;4465;50.904;4.696;2024-02-15T08:08:44;12.50;99.90
8858;DHT22;4465;50.904;4.696;2024-02-15T08:11:14;12.60;99.90
8858;DHT22;4465;50.904;4.696;2024-02-15T08:16:13;12.60;99.90
8858;DHT22;4465;50.904;4.696;2024-02-15T08:18:45;12.60;99.90
8858;DHT22;4465;50.904;4.696;2024-02-15T08:21:14;12.60;99.90
8858;DHT22;4465;50.904;4.696;2024-02-15T08:23:40;12.70;99.90
8858;DHT22;4465;50.904;4.696;2024-02-15T08:26:06;12.60;99.90
8858;DHT22;4465;50.904;4.696;2024-02-15T08:28:32;12.70;99.90
8858;DHT22;4465;50.904;4.696;2024-02-15T08:31:00;12.70;99.90
8858;DHT22;4465;50.904;4.696;2024-02-15T08:33:29;12.70;99.90
8858;DHT22;4465;50.904;4.696;2024-02-15T08:35:56;12.70;99.90
8858;DHT22;4465;50.904;4.696;2024-02-15T08:38:24;12.80;99.90
8858;DHT22;4465;50.904;4.696;2024-02-15T08:40:52;12.80;99.90
8858;DHT22;4465;50.904;4.696;2024-02-15T08:43:18;12.80;99.90
8858;DHT22;4465;50.904;4.696;2024-02-15T08:45:44;12.80;99.90
8858;DHT22;4465;50.904;4.696;2024-02-15T08:48:11;12.90;99.90
8858;DHT22;4465;50.904;4.696;2024-02-15T08:50:37;12.90;99.90
8858;DHT22;4465;50.904;4.696;2024-02-15T08:53:03;12.90;99.90
8858;DHT22;4465;50.904;4.696;2024-02-15T08:55:34;13.00;99.90
8858;DHT22;4465;50.904;4.696;2024-02-15T08:58:02;13.00;99.90
8858;DHT22;4465;50.904;4.696;2024-02-15T09:00:30;13.00;99.90
8858;DHT22;4465;50.904;4.696;2024-02-15T09:02:57;13.00;99.90
8858;DHT22;4465;50.904;4.696;2024-02-15T09:05:25;13.10;99.90
8858;DHT22;4465;50.904;4.696;2024-02-15T09:07:54;13.10;99.90
8858;DHT22;4465;50.904;4.696;2024-02-15T09:10:20;13.20;99.90
8858;DHT22;4465;50.904;4.696;2024-02-15T09:12:49;13.20;99.90
8858;DHT22;4465;50.904;4.696;2024-02-15T09:15:18;13.30;99.90
8858;DHT22;4465;50.904;4.696;2024-02-15T09:17:44;13.30;99.90
8858;DHT22;4465;50.904;4.696;2024-02-15T09:20:12;13.30;99.90
8858;DHT22;4465;50.904;4.696;2024-02-15T09:22:42;13.40;99.90
8858;DHT22;4465;50.904;4.696;2024-02-15T09:25:10;13.40;99.90
8858;DHT22;4465;50.904;4.696;2024-02-15T09:27:36;13.40;99.90
8858;DHT22;4465;50.904;4.696;2024-02-15T09:30:05;13.50;99.90
8858;DHT22;4465;50.904;4.696;2024-02-15T09:32:37;13.50;99.90
8858;DHT22;4465;50.904;4.696;2024-02-15T09:35:09;13.50;99.90
8858;DHT22;4465;50.904;4.696;2024-02-15T09:37:48;13.60;99.90
8858;DHT22;4465;50.904;4.696;2024-02-15T09:40:17;13.60;99.90
8858;DHT22;4465;50.904;4.696;2024-02-15T09:42:44;13.70;99.90
8858;DHT22;4465;50.904;4.696;2024-02-15T09:45:13;13.70;99.90
8858;DHT22;4465;50.904;4.696;2024-02-15T09:47:44;13.80;99.90
8858;DHT22;4465;50.904;4.696;2024-02-15T09:52:49;13.80;99.90
8858;DHT22;4465;50.904;4.696;2024-02-15T09:55:15;13.80;99.90
8858;DHT22;4465;50.904;4.696;2024-02-15T09:57:43;13.90;99.90
8858;DHT22;4465;50.904;4.696;2024-02-15T10:00:10;14.00;99.90
8858;DHT22;4465;50.904;4.696;2024-02-15T10:02:44;14.00;99.90
8858;DHT22;4465;50.904;4.696;2024-02-15T10:05:11;14.10;99.90
8858;DHT22;4465;50.904;4.696;2024-02-15T10:07:40;14.10;99.90
8858;DHT22;4465;50.904;4.696;2024-02-15T10:10:20;14.20;99.90
8858;DHT22;4465;50.904;4.696;2024-02-15T10:12:50;14.30;99.90
8858;DHT22;4465;50.904;4.696;2024-02-15T10:18:03;14.40;99.90
8858;DHT22;4465;50.904;4.696;2024-02-15T10:20:29;14.50;99.90
8858;DHT22;4465;50.904;4.696;2024-02-15T10:23:08;14.50;99.90
8858;DHT22;4465;50.904;4.696;2024-02-15T10:25:35;14.60;99.90
8858;DHT22;4465;50.904;4.696;2024-02-15T10:28:08;14.70;99.90
8858;DHT22;4465;50.904;4.696;2024-02-15T10:30:36;14.80;99.90
8858;DHT22;4465;50.904;4.696;2024-02-15T10:33:05;14.80;99.90
8858;DHT22;4465;50.904;4.696;2024-02-15T10:35:33;14.90;99.90
8858;DHT22;4465;50.904;4.696;2024-02-15T10:38:06;14.90;99.90
8858;DHT22;4465;50.904;4.696;2024-02-15T10:40:37;14.90;99.90
8858;DHT22;4465;50.904;4.696;2024-02-15T10:43:04;15.00;99.90
8858;DHT22;4465;50.904;4.696;2024-02-15T10:45:32;15.00;99.90
8858;DHT22;4465;50.904;4.696;2024-02-15T10:47:58;15.00;99.90
8858;DHT22;4465;50.904;4.696;2024-02-15T10:50:24;15.10;99.90
8858;DHT22;4465;50.904;4.696;2024-02-15T10:55:29;15.30;99.90
8858;DHT22;4465;50.904;4.696;2024-02-15T10:58:02;15.40;99.90
8858;DHT22;4465;50.904;4.696;2024-02-15T11:00:33;15.50;99.90
8858;DHT22;4465;50.904;4.696;2024-02-15T11:05:36;15.60;99.90
8858;DHT22;4465;50.904;4.696;2024-02-15T11:08:07;15.80;99.90
8858;DHT22;4465;50.904;4.696;2024-02-15T11:10:35;15.90;99.90
8858;DHT22;4465;50.904;4.696;2024-02-15T11:13:04;16.00;99.90
8858;DHT22;4465;50.904;4.696;2024-02-15T11:15:44;16.10;99.90
8858;DHT22;4465;50.904;4.696;2024-02-15T11:18:45;16.30;99.90
8858;DHT22;4465;50.904;4.696;2024-02-15T11:21:16;16.40;99.90
8858;DHT22;4465;50.904;4.696;2024-02-15T11:23:43;16.50;99.90
8858;DHT22;4465;50.904;4.696;2024-02-15T11:26:44;16.50;99.90
8858;DHT22;4465;50.904;4.696;2024-02-15T11:35:14;16.40;99.90
8858;DHT22;4465;50.904;4.696;2024-02-15T11:42:45;16.30;99.90
8858;DHT22;4465;50.904;4.696;2024-02-15T11:45:16;16.30;99.90
8858;DHT22;4465;50.904;4.696;2024-02-15T11:47:49;16.20;99.90
8858;DHT22;4465;50.904;4.696;2024-02-15T11:50:18;16.20;99.90
8858;DHT22;4465;50.904;4.696;2024-02-15T11:52:49;16.20;99.90
8858;DHT22;4465;50.904;4.696;2024-02-15T11:55:22;16.20;99.90
8858;DHT22;4465;50.904;4.696;2024-02-15T11:57:55;16.20;99.90
8858;DHT22;4465;50.904;4.696;2024-02-15T12:00:28;16.20;99.90
8858;DHT22;4465;50.904;4.696;2024-02-15T12:03:16;16.20;99.90
8858;DHT22;4465;50.904;4.696;2024-02-15T12:06:00;16.20;99.90
8858;DHT22;4465;50.904;4.696;2024-02-15T12:08:46;16.20;99.90
8858;DHT22;4465;50.904;4.696;2024-02-15T12:11:31;16.20;99.90
8858;DHT22;4465;50.904;4.696;2024-02-15T12:14:16;16.20;99.90
8858;DHT22;4465;50.904;4.696;2024-02-15T12:17:05;16.20;99.90
8858;DHT22;4465;50.904;4.696;2024-02-15T12:19:51;16.20;99.90
8858;DHT22;4465;50.904;4.696;2024-02-15T12:22:21;16.20;99.90
8858;DHT22;4465;50.904;4.696;2024-02-15T12:24:58;16.30;99.90
8858;DHT22;4465;50.904;4.696;2024-02-15T12:27:29;16.30;99.90
8858;DHT22;4465;50.904;4.696;2024-02-15T12:29:56;16.30;99.90
8858;DHT22;4465;50.904;4.696;2024-02-15T12:32:27;16.30;99.90
8858;DHT22;4465;50.904;4.696;2024-02-15T12:35:10;16.30;99.90
8858;DHT22;4465;50.904;4.696;2024-02-15T12:37:46;16.40;99.90
8858;DHT22;4465;50.904;4.696;2024-02-15T12:40:19;16.40;99.90
8858;DHT22;4465;50.904;4.696;2024-02-15T12:42:48;16.30;99.90
8858;DHT22;4465;50.904;4.696;2024-02-15T12:45:18;16.30;99.90
8858;DHT22;4465;50.904;4.696;2024-02-15T12:47:52;16.30;99.90
8858;DHT22;4465;50.904;4.696;2024-02-15T12:50:20;16.30;99.90
8858;DHT22;4465;50.904;4.696;2024-02-15T12:52:50;16.20;99.90
8858;DHT22;4465;50.904;4.696;2024-02-15T12:55:20;16.10;99.90
8858;DHT22;4465;50.904;4.696;2024-02-15T12:57:51;16.10;99.90
8858;DHT22;4465;50.904;4.696;2024-02-15T13:00:25;16.00;99.90
8858;DHT22;4465;50.904;4.696;2024-02-15T13:02:57;16.00;99.90
8858;DHT22;4465;50.904;4.696;2024-02-15T13:05:25;15.90;99.90
8858;DHT22;4465;50.904;4.696;2024-02-15T13:07:54;15.90;99.90
8858;DHT22;4465;50.904;4.696;2024-02-15T13:10:21;15.90;99.90
8858;DHT22;4465;50.904;4.696;2024-02-15T13:12:48;15.90;99.90
8858;DHT22;4465;50.904;4.696;2024-02-15T13:15:15;15.90;99.90
8858;DHT22;4465;50.904;4.696;2024-02-15T13:17:47;16.00;99.90
8858;DHT22;4465;50.904;4.696;2024-02-15T13:20:17;16.00;99.90
8858;DHT22;4465;50.904;4.696;2024-02-15T13:22:46;16.00;99.90
8858;DHT22;4465;50.904;4.696;2024-02-15T13:25:15;16.10;99.90
8858;DHT22;4465;50.904;4.696;2024-02-15T13:27:47;16.10;99.90
8858;DHT22;4465;50.904;4.696;2024-02-15T13:30:17;16.00;99.90
8858;DHT22;4465;50.904;4.696;2024-02-15T13:32:49;16.00;99.90
8858;DHT22;4465;50.904;4.696;2024-02-15T13:35:18;16.10;99.90
8858;DHT22;4465;50.904;4.696;2024-02-15T13:37:49;16.10;99.90
8858;DHT22;4465;50.904;4.696;2024-02-15T13:40:18;16.20;99.90
8858;DHT22;4465;50.904;4.696;2024-02-15T13:42:49;16.30;99.90
8858;DHT22;4465;50.904;4.696;2024-02-15T13:45:22;16.40;99.90
8858;DHT22;4465;50.904;4.696;2024-02-15T13:47:50;16.50;99.90
8858;DHT22;4465;50.904;4.696;2024-02-15T13:50:16;16.70;99.90
8858;DHT22;4465;50.904;4.696;2024-02-15T13:52:43;16.80;99.90
8858;DHT22;4465;50.904;4.696;2024-02-15T13:55:13;16.90;99.90
8858;DHT22;4465;50.904;4.696;2024-02-15T13:57:40;17.00;99.90
8858;DHT22;4465;50.904;4.696;2024-02-15T14:00:08;17.10;99.90
8858;DHT22;4465;50.904;4.696;2024-02-15T14:02:40;17.10;99.90
8858;DHT22;4465;50.904;4.696;2024-02-15T14:05:09;17.10;99.90
8858;DHT22;4465;50.904;4.696;2024-02-15T14:07:37;17.20;99.90
8858;DHT22;4465;50.904;4.696;2024-02-15T14:10:07;17.20;99.90
8858;DHT22;4465;50.904;4.696;2024-02-15T14:12:34;17.30;99.90
8858;DHT22;4465;50.904;4.696;2024-02-15T14:15:02;17.30;99.90
8858;DHT22;4465;50.904;4.696;2024-02-15T14:17:31;17.30;99.90
8858;DHT22;4465;50.904;4.696;2024-02-15T14:19:57;17.30;99.90
8858;DHT22;4465;50.904;4.696;2024-02-15T14:22:26;17.30;99.90
8858;DHT22;4465;50.904;4.696;2024-02-15T14:24:57;17.20;99.90
8858;DHT22;4465;50.904;4.696;2024-02-15T14:27:23;17.20;99.90
8858;DHT22;4465;50.904;4.696;2024-02-15T14:29:49;17.20;99.90
8858;DHT22;4465;50.904;4.696;2024-02-15T14:32:33;17.10;99.90
8858;DHT22;4465;50.904;4.696;2024-02-15T14:35:22;17.10;99.90
8858;DHT22;4465;50.904;4.696;2024-02-15T14:37:49;17.10;99.90
8858;DHT22;4465;50.904;4.696;2024-02-15T14:40:15;17.10;99.90
8858;DHT22;4465;50.904;4.696;2024-02-15T14:42:43;17.10;99.90
8858;DHT22;4465;50.904;4.696;2024-02-15T14:45:10;17.00;99.90
8858;DHT22;4465;50.904;4.696;2024-02-15T14:47:41;16.90;99.90
8858;DHT22;4465;50.904;4.696;2024-02-15T14:50:10;16.90;99.90
8858;DHT22;4465;50.904;4.696;2024-02-15T14:52:38;16.80;99.90
8858;DHT22;4465;50.904;4.696;2024-02-15T14:55:04;16.80;99.90
8858;DHT22;4465;50.904;4.696;2024-02-15T14:57:39;16.80;99.90
8858;DHT22;4465;50.904;4.696;2024-02-15T15:00:07;16.80;99.90
8858;DHT22;4465;50.904;4.696;2024-02-15T15:02:38;16.70;99.90
8858;DHT22;4465;50.904;4.696;2024-02-15T15:05:04;16.70;99.90
8858;DHT22;4465;50.904;4.696;2024-02-15T15:07:49;16.70;99.90
8858;DHT22;4465;50.904;4.696;2024-02-15T15:10:34;16.70;99.90
8858;DHT22;4465;50.904;4.696;2024-02-15T15:13:18;16.70;99.90
8858;DHT22;4465;50.904;4.696;2024-02-15T15:15:47;16.60;99.90
8858;DHT22;4465;50.904;4.696;2024-02-15T15:18:16;16.60;99.90
8858;DHT22;4465;50.904;4.696;2024-02-15T15:20:43;16.60;99.90
8858;DHT22;4465;50.904;4.696;2024-02-15T15:23:11;16.60;99.90
8858;DHT22;4465;50.904;4.696;2024-02-15T15:25:42;16.60;99.90
8858;DHT22;4465;50.904;4.696;2024-02-15T15:28:08;16.50;99.90
8858;DHT22;4465;50.904;4.696;2024-02-15T15:30:34;16.50;99.90
8858;DHT22;4465;50.904;4.696;2024-02-15T15:33:00;16.50;99.90
8858;DHT22;4465;50.904;4.696;2024-02-15T15:35:26;16.40;99.90
8858;DHT22;4465;50.904;4.696;2024-02-15T15:37:53;16.40;99.90
8858;DHT22;4465;50.904;4.696;2024-02-15T15:40:19;16.40;99.90
8858;DHT22;4465;50.904;4.696;2024-02-15T15:42:46;16.40;99.90
8858;DHT22;4465;50.904;4.696;2024-02-15T15:45:15;16.40;99.90
8858;DHT22;4465;50.904;4.696;2024-02-15T15:47:42;16.30;99.90
8858;DHT22;4465;50.904;4.696;2024-02-15T15:50:08;16.30;99.90
8858;DHT22;4465;50.904;4.696;2024-02-15T15:52:40;16.30;99.90
8858;DHT22;4465;50.904;4.696;2024-02-15T15:55:07;16.30;99.90
8858;DHT22;4465;50.904;4.696;2024-02-15T15:57:42;16.30;99.90
8858;DHT22;4465;50.904;4.696;2024-02-15T16:00:10;16.30;99.90
8858;DHT22;4465;50.904;4.696;2024-02-15T16:02:45;16.20;99.90
8858;DHT22;4465;50.904;4.696;2024-02-15T16:05:11;16.20;99.90
8858;DHT22;4465;50.904;4.696;2024-02-15T16:07:38;16.10;99.90
8858;DHT22;4465;50.904;4.696;2024-02-15T16:10:07;16.10;99.90
8858;DHT22;4465;50.904;4.696;2024-02-15T16:12:37;16.10;99.90
8858;DHT22;4465;50.904;4.696;2024-02-15T16:15:07;16.10;99.90
8858;DHT22;4465;50.904;4.696;2024-02-15T16:17:37;16.00;99.90
8858;DHT22;4465;50.904;4.696;2024-02-15T16:20:06;16.00;99.90
8858;DHT22;4465;50.904;4.696;2024-02-15T16:22:35;15.90;99.90
8858;DHT22;4465;50.904;4.696;2024-02-15T16:25:04;15.90;99.90
8858;DHT22;4465;50.904;4.696;2024-02-15T16:27:33;15.80;99.90
8858;DHT22;4465;50.904;4.696;2024-02-15T16:30:00;15.70;99.90
8858;DHT22;4465;50.904;4.696;2024-02-15T16:32:28;15.60;99.90
8858;DHT22;4465;50.904;4.696;2024-02-15T16:34:55;15.60;99.90
8858;DHT22;4465;50.904;4.696;2024-02-15T16:37:24;15.50;99.90
8858;DHT22;4465;50.904;4.696;2024-02-15T16:39:53;15.40;99.90
8858;DHT22;4465;50.904;4.696;2024-02-15T16:42:21;15.40;99.90